AirNav   Everest Fuels
 
 1136 users online  

6GE2 Rainbow Field Airport
Woodland, Georgia, USA

GOING TO WOODLAND?


FAA INFORMATION EFFECTIVE 10 SEPTEMBER 2020

Location

FAA Identifier: 6GE2
Lat/Long: 32-49-58.0000N 084-32-16.0000W
32-49.966667N 084-32.266667W
32.8327778,-84.5377778
(estimated)
Elevation: 780 ft. / 238 m (estimated)
From city: 3 miles NE of WOODLAND, GA
Time zone: UTC -4 (UTC -5 during Standard Time)
Zip code: 31836

Airport Operations

Airport use: Private use. Permission required prior to landing
Activation date: 12/2003
Control tower: no
ARTCC: ATLANTA CENTER
FSS: MACON FLIGHT SERVICE STATION
Attendance: UNATNDD
Segmented circle: no

Airport Communications

WX AWOS-3 at OPN (16 nm NE): 133.975 (706-646-4123)
WX AWOS-3PT at PIM (17 nm W): 120.275 (706-663-2081)

Nearby radio navigation aids

VOR radial/distance  VOR name  Freq  Var
CSGr061/27.5COLUMBUS VORTAC117.1001E
LGCr110/36.1LAGRANGE VORTAC115.6001E
LSFr039/37.8LAWSON VOR/DME111.4002W

 
NDB name  Hdg/Dist  Freq  Var  ID
PINE MOUNTAIN095/16.927203WPIM .--. .. --
COWETA COUNTY164/26.923403WEQQ . --.- --.-
PECAT190/28.231605WFFC ..-. ..-. -.-.
MONTEZUMA320/38.742604WIZS .. --.. ...

Airport Services

Runway Information

Runway 18/36

Dimensions: 1800 x 60 ft. / 549 x 18 m
Surface: turf
RUNWAY 18  RUNWAY 36
Traffic pattern: leftleft
Displaced threshold: 50 ft.50 ft.
Obstructions: 80 ft. pline50 ft. trees

Airport Ownership and Management from official FAA records

Ownership: Privately-owned
Owner: JEFFREY W. CLARK
205 VININGS FOREST CIRCLE SE
SMYRNA, GA 30080
Phone 678-640-9175
Manager: JEFFREY W. CLARK
205 VININGS FOREST CIRCLE SE
SMYRNA, GA 30080
Phone 678-640-9175

Additional Remarks

1600 FT AGL RADIO ANTENNA 9600 FT S OF APT.
C+W AIRPORT IS 2600 FT NW OF RAINBOW FIELD.
FOR CD CTC ATLANTA APCH AT 678-364-6132, WHEN APCH CLSD CTC ATLANTA ARTCC AT 770-210-7692.

Instrument Procedures

There are no published instrument procedures at 6GE2.

Some nearby airports with instrument procedures:

KOPN - Thomaston-Upson County Airport (16 nm NE)
KPIM - Harris County Airport (17 nm W)
6A1 - Butler Municipal Airport (22 nm SE)
6A2 - Griffin-Spalding County Airport (27 nm NE)
KCSG - Columbus Airport (28 nm SW)
 
Loc | Ops | Rwys | IFR | FBO | Links
Com | Nav | Svcs | Stats | Notes
Area around 6GE2 (Rainbow Field Airport)
 
Road maps at: MapQuest Bing Google
 
Aerial photo
No photo
 
Sectional chart

 
Airport distance calculator
Flying to Rainbow Field Airport? Find the distance to fly.

From to 6GE2

Sunrise and sunset
Times for 25-Sep-2020
 Local
(UTC-4)
 Zulu
(UTC)
Morning civil twilight07:0511:05
Sunrise07:3011:30
Sunset19:2923:29
Evening civil twilight19:5423:54

Current date and time
Zulu (UTC)  25-Sep-2020 23:38:01
Local (UTC-4)  25-Sep-2020 19:38:01
 
METAR
KOPN 
15nm NE 
252315Z AUTO 00000KT 10SM OVC038 23/20 A2999 RMK AO2
KPIM 
17nm W 
252315Z AUTO 00000KT 10SM SCT019 BKN027 OVC034 23/20 A3000 RMK AO2 T02290196
K6A1 
22nm SE 
252315Z AUTO 33003KT 10SM BKN034 25/20 A2998 RMK AO2 T02450195
K6A2 
27nm NE 
252315Z AUTO 00000KT 10SM SCT027 OVC038 22/21 A2999 RMK AO2
KCSG 
28nm SW 
252251Z 30005KT 10SM OVC037 25/19 A2996 RMK AO2 SLP140 T02500194
KLGC 
28nm W 
252315Z AUTO 33003KT 10SM OVC035 23/19 A2999 RMK AO2 T02260191
TAF
KCSG 
28nm SW 
251738Z 2518/2618 25007KT P6SM OVC025 FM251900 26006KT P6SM BKN035 FM260000 30004KT P6SM SCT120 FM260800 00000KT 4SM BR SCT015 BKN040 FM261100 00000KT 2SM BR BKN007 OVC012 FM261400 00000KT P6SM SCT009 SCT015
NOTAMs
Click for the latest NOTAMs
NOTAMs are issued by the DoD/FAA and will open in a separate window not controlled by AirNav.

 

 
 

Would you like to see your business listed on this page?

 If your business provides an interesting product or service to pilots, flight crews, aircraft, or users of the Rainbow Field Airport, you should consider listing it here.  To start the listing process, click on the button below
 
Add a business
 

Other Pages about Rainbow Field Airport

Update a link
 
Copyright © AirNav, LLC. All rights reserved. Privacy Policy  Contact